Tampa, Florida
Traffic Map
Current Weather Conditions
Tampa, Florida
Broken Clouds
Broken Clouds
23°
Feels Like: 23°
Wind Chill: 23° Ceiling: 25000
Heat Index: 23° Visibility: 10mi
Dew Point: 18° Wind: 3mph
Humidity: 73% Direction: 50° (NE)
Pressure: 30in Gusts: 0mph
Raw Report DataKTPA 301253Z 05003KT 10SM FEW020 SCT120 BKN250 23/18 A3000 RMK AO2 SLP157 T02280178
Traffic Incident Summary
Active as of:
Severity:
Category:
InformationThere was an issue retrieving the traffic information for this location. Please try a different location or try again shortly.
Advertisements
Track Severe Weather on mobile